createdAt,value
2022-11-26T00:00:48.295Z,1003.99
2022-11-26T00:01:48.334Z,1004.00
2022-11-26T00:02:48.481Z,1003.98
2022-11-26T00:03:48.227Z,1003.97
2022-11-26T00:04:48.197Z,1003.97
2022-11-26T00:05:48.184Z,1003.95
2022-11-26T00:06:48.149Z,1003.97
2022-11-26T00:07:48.201Z,1004.00
2022-11-26T00:08:48.100Z,1004.04
2022-11-26T00:09:48.070Z,1004.10
2022-11-26T00:10:48.055Z,1004.14
2022-11-26T00:11:48.015Z,1004.11
2022-11-26T00:12:47.992Z,1004.16
2022-11-26T00:13:47.962Z,1004.14
2022-11-26T00:14:47.945Z,1004.17
2022-11-26T00:15:47.916Z,1004.17
2022-11-26T00:16:47.950Z,1004.21
2022-11-26T00:17:47.859Z,1004.20
2022-11-26T00:18:47.849Z,1004.21
2022-11-26T00:19:47.809Z,1004.26
2022-11-26T00:20:47.779Z,1004.26
2022-11-26T00:21:47.770Z,1004.25
2022-11-26T00:22:47.740Z,1004.23
2022-11-26T00:23:47.709Z,1004.28
2022-11-26T00:24:47.693Z,1004.29
2022-11-26T00:25:47.668Z,1004.28
2022-11-26T00:26:47.631Z,1004.34
2022-11-26T00:27:47.606Z,1004.29
2022-11-26T00:28:47.569Z,1004.28
2022-11-26T00:29:47.581Z,1004.33
2022-11-26T00:30:47.545Z,1004.32
2022-11-26T00:31:47.586Z,1004.35
2022-11-26T00:32:47.479Z,1004.38
2022-11-26T00:33:47.444Z,1004.38
2022-11-26T00:34:47.414Z,1004.40
2022-11-26T00:35:47.400Z,1004.41
2022-11-26T00:36:47.371Z,1004.44
2022-11-26T00:37:47.346Z,1004.45
2022-11-26T00:38:47.317Z,1004.52
2022-11-26T00:39:47.294Z,1004.53
2022-11-26T00:40:47.262Z,1004.54
2022-11-26T00:41:47.244Z,1004.58
2022-11-26T00:42:47.207Z,1004.55
2022-11-26T00:43:47.187Z,1004.58
2022-11-26T00:44:47.156Z,1004.62
2022-11-26T00:45:47.244Z,1004.58
2022-11-26T00:46:47.126Z,1004.62
2022-11-26T00:47:47.085Z,1004.61
2022-11-26T00:48:47.056Z,1004.62
2022-11-26T00:49:47.035Z,1004.64
2022-11-26T00:50:46.999Z,1004.63
2022-11-26T00:51:47.016Z,1004.67
2022-11-26T00:52:46.950Z,1004.69
2022-11-26T00:53:46.930Z,1004.71
2022-11-26T00:54:46.909Z,1004.72
2022-11-26T00:55:46.907Z,1004.73
2022-11-26T00:56:46.851Z,1004.78
2022-11-26T00:57:46.831Z,1004.77
2022-11-26T00:58:46.801Z,1004.82
2022-11-26T00:59:46.816Z,1004.80
2022-11-26T01:00:46.796Z,1004.77
2022-11-26T01:01:46.820Z,1004.81
2022-11-26T01:02:46.703Z,1004.85
2022-11-26T01:03:46.681Z,1004.79
2022-11-26T01:04:46.644Z,1004.86
2022-11-26T01:05:46.639Z,1004.84
2022-11-26T01:06:46.597Z,1004.83
2022-11-26T01:07:46.700Z,1004.89
2022-11-26T01:08:46.546Z,1004.91
2022-11-26T01:09:46.536Z,1004.91
2022-11-26T01:10:46.530Z,1004.92
2022-11-26T01:11:50.919Z,1004.92
2022-11-26T01:12:46.458Z,1004.90
2022-11-26T01:13:46.436Z,1004.95
2022-11-26T01:14:46.394Z,1004.91
2022-11-26T01:15:46.368Z,1004.92
2022-11-26T01:16:46.447Z,1004.93
2022-11-26T01:17:46.315Z,1004.89
2022-11-26T01:18:46.298Z,1004.91
2022-11-26T01:19:46.268Z,1004.94
2022-11-26T01:20:46.235Z,1004.92
2022-11-26T01:21:46.216Z,1004.97
2022-11-26T01:22:46.183Z,1004.94
2022-11-26T01:23:46.177Z,1004.99
2022-11-26T01:24:46.148Z,1004.97
2022-11-26T01:25:46.111Z,1004.99
2022-11-26T01:26:46.092Z,1004.99
2022-11-26T01:27:46.070Z,1004.99
2022-11-26T01:28:46.033Z,1004.97
2022-11-26T01:29:46.018Z,1005.04
2022-11-26T01:30:45.992Z,1005.03
2022-11-26T01:31:46.046Z,1005.08
2022-11-26T01:32:45.946Z,1005.09
2022-11-26T01:33:45.917Z,1005.11
2022-11-26T01:34:45.894Z,1005.09
2022-11-26T01:35:45.869Z,1005.13
2022-11-26T01:36:45.852Z,1005.17
2022-11-26T01:37:45.816Z,1005.18
2022-11-26T01:38:45.788Z,1005.16
2022-11-26T01:39:45.790Z,1005.18
2022-11-26T01:40:45.733Z,1005.21
2022-11-26T01:41:45.710Z,1005.25
2022-11-26T01:42:45.702Z,1005.23
2022-11-26T01:43:45.661Z,1005.21
2022-11-26T01:44:45.628Z,1005.23
2022-11-26T01:45:45.681Z,1005.24
2022-11-26T01:46:45.585Z,1005.26
2022-11-26T01:47:45.566Z,1005.25
2022-11-26T01:48:45.531Z,1005.28
2022-11-26T01:49:45.526Z,1005.29
2022-11-26T01:50:45.480Z,1005.28
2022-11-26T01:51:45.460Z,1005.34
2022-11-26T01:52:45.433Z,1005.34
2022-11-26T01:53:45.408Z,1005.41
2022-11-26T01:54:45.387Z,1005.44
2022-11-26T01:55:45.357Z,1005.40
2022-11-26T01:56:45.328Z,1005.42
2022-11-26T01:57:45.309Z,1005.39
2022-11-26T01:58:45.283Z,1005.40
2022-11-26T01:59:45.258Z,1005.41
2022-11-26T02:00:45.263Z,1005.40
2022-11-26T02:01:45.279Z,1005.43
2022-11-26T02:02:45.202Z,1005.43
2022-11-26T02:03:45.159Z,1005.43
2022-11-26T02:04:45.133Z,1005.41
2022-11-26T02:05:45.109Z,1005.43
2022-11-26T02:06:45.118Z,1005.45
2022-11-26T02:07:45.199Z,1005.45
2022-11-26T02:08:45.034Z,1005.41
2022-11-26T02:09:45.009Z,1005.39
2022-11-26T02:10:44.986Z,1005.43
2022-11-26T02:11:44.972Z,1005.40
2022-11-26T02:12:44.987Z,1005.46
2022-11-26T02:13:44.913Z,1005.54
2022-11-26T02:14:44.883Z,1005.50
2022-11-26T02:15:44.861Z,1005.50
2022-11-26T02:16:44.894Z,1005.52
2022-11-26T02:17:44.810Z,1005.58
2022-11-26T02:18:44.784Z,1005.55
2022-11-26T02:19:44.761Z,1005.55
2022-11-26T02:20:44.735Z,1005.58
2022-11-26T02:21:44.710Z,1005.57
2022-11-26T02:22:44.682Z,1005.60
2022-11-26T02:23:44.659Z,1005.64
2022-11-26T02:24:44.630Z,1005.66
2022-11-26T02:25:44.611Z,1005.70
2022-11-26T02:26:44.582Z,1005.70
2022-11-26T02:27:44.576Z,1005.69
2022-11-26T02:28:44.529Z,1005.73
2022-11-26T02:29:44.512Z,1005.75
2022-11-26T02:30:44.493Z,1005.74
2022-11-26T02:31:44.528Z,1005.79
2022-11-26T02:32:44.433Z,1005.85
2022-11-26T02:33:44.407Z,1005.89
2022-11-26T02:34:44.716Z,1005.91
2022-11-26T02:35:44.363Z,1005.89
2022-11-26T02:36:44.331Z,1005.92
2022-11-26T02:37:44.314Z,1005.92
2022-11-26T02:38:44.282Z,1005.96
2022-11-26T02:39:44.262Z,1005.93
2022-11-26T02:40:44.243Z,1005.93
2022-11-26T02:41:44.211Z,1005.97
2022-11-26T02:42:44.180Z,1005.94
2022-11-26T02:43:44.159Z,1005.96
2022-11-26T02:44:44.135Z,1005.98
2022-11-26T02:45:44.175Z,1005.99
2022-11-26T02:46:44.117Z,1006.03
2022-11-26T02:47:44.064Z,1006.03
2022-11-26T02:48:44.044Z,1006.03
2022-11-26T02:49:44.021Z,1006.04
2022-11-26T02:50:43.994Z,1006.09
2022-11-26T02:51:43.964Z,1006.06
2022-11-26T02:52:43.937Z,1006.08
2022-11-26T02:53:43.916Z,1006.05
2022-11-26T02:54:43.883Z,1006.14
2022-11-26T02:55:43.860Z,1006.15
2022-11-26T02:56:43.842Z,1006.16
2022-11-26T02:57:43.812Z,1006.13
2022-11-26T02:58:43.787Z,1006.16
2022-11-26T02:59:43.765Z,1006.16
2022-11-26T03:00:43.787Z,1006.22
2022-11-26T03:01:43.718Z,1006.20
2022-11-26T03:02:43.690Z,1006.21
2022-11-26T03:03:43.693Z,1006.21
2022-11-26T03:04:43.638Z,1006.21
2022-11-26T03:05:43.619Z,1006.24
2022-11-26T03:06:43.601Z,1006.25
2022-11-26T03:07:43.674Z,1006.24
2022-11-26T03:08:43.542Z,1006.26
2022-11-26T03:09:43.515Z,1006.20
2022-11-26T03:10:43.492Z,1006.21
2022-11-26T03:11:43.527Z,1006.19
2022-11-26T03:12:43.436Z,1006.25
2022-11-26T03:13:43.430Z,1006.28
2022-11-26T03:14:43.394Z,1006.25
2022-11-26T03:15:43.367Z,1006.26
2022-11-26T03:16:43.451Z,1006.28
2022-11-26T03:17:43.320Z,1006.29
2022-11-26T03:18:43.316Z,1006.30
2022-11-26T03:19:43.271Z,1006.31
2022-11-26T03:20:43.240Z,1006.28
2022-11-26T03:21:43.219Z,1006.27
2022-11-26T03:22:43.189Z,1006.30
2022-11-26T03:23:43.199Z,1006.28
2022-11-26T03:24:43.142Z,1006.32
2022-11-26T03:25:43.125Z,1006.26
2022-11-26T03:26:43.099Z,1006.26
2022-11-26T03:27:43.069Z,1006.28
2022-11-26T03:28:43.049Z,1006.30
2022-11-26T03:29:43.022Z,1006.27
2022-11-26T03:30:43.022Z,1006.28
2022-11-26T03:31:42.974Z,1006.30
2022-11-26T03:32:42.946Z,1006.33
2022-11-26T03:33:42.952Z,1006.29
2022-11-26T03:34:42.897Z,1006.31
2022-11-26T03:35:42.875Z,1006.31
2022-11-26T03:36:42.855Z,1006.33
2022-11-26T03:37:42.831Z,1006.32
2022-11-26T03:38:42.803Z,1006.35
2022-11-26T03:39:42.787Z,1006.38
2022-11-26T03:40:42.750Z,1006.36
2022-11-26T03:41:42.738Z,1006.38
2022-11-26T03:42:42.701Z,1006.38
2022-11-26T03:43:42.669Z,1006.41
2022-11-26T03:44:42.658Z,1006.46
2022-11-26T03:45:42.679Z,1006.43
2022-11-26T03:46:42.607Z,1006.48
2022-11-26T03:47:42.581Z,1006.48
2022-11-26T03:48:42.553Z,1006.50
2022-11-26T03:49:42.522Z,1006.48
2022-11-26T03:50:42.534Z,1006.53
2022-11-26T03:51:42.481Z,1006.52
2022-11-26T03:52:42.458Z,1006.54
2022-11-26T03:53:42.431Z,1006.54
2022-11-26T03:54:42.404Z,1006.54
2022-11-26T03:55:42.373Z,1006.52
2022-11-26T03:56:42.357Z,1006.52
2022-11-26T03:57:42.324Z,1006.52
2022-11-26T03:58:42.311Z,1006.51
2022-11-26T03:59:42.277Z,1006.53
2022-11-26T04:00:42.262Z,1006.52
2022-11-26T04:01:42.271Z,1006.54
2022-11-26T04:02:42.287Z,1006.46
2022-11-26T04:03:42.180Z,1006.47
2022-11-26T04:04:42.157Z,1006.45
2022-11-26T04:05:42.138Z,1006.45
2022-11-26T04:06:42.109Z,1006.43
2022-11-26T04:07:42.118Z,1006.43
2022-11-26T04:08:42.066Z,1006.41
2022-11-26T04:09:42.037Z,1006.43
2022-11-26T04:10:42.032Z,1006.39
2022-11-26T04:11:41.982Z,1006.40
2022-11-26T04:12:41.961Z,1006.41
2022-11-26T04:13:41.939Z,1006.40
2022-11-26T04:14:42.044Z,1006.41
2022-11-26T04:15:41.875Z,1006.36
2022-11-26T04:16:41.888Z,1006.36
2022-11-26T04:17:41.835Z,1006.35
2022-11-26T04:18:41.812Z,1006.34
2022-11-26T04:19:41.781Z,1006.34
2022-11-26T04:20:41.758Z,1006.33
2022-11-26T04:21:41.729Z,1006.35
2022-11-26T04:22:41.710Z,1006.35
2022-11-26T04:23:41.682Z,1006.30
2022-11-26T04:24:41.662Z,1006.39
2022-11-26T04:25:41.674Z,1006.31
2022-11-26T04:26:41.611Z,1006.33
2022-11-26T04:27:41.584Z,1006.33
2022-11-26T04:28:41.558Z,1006.29
2022-11-26T04:29:41.534Z,1006.29
2022-11-26T04:30:41.520Z,1006.31
2022-11-26T04:31:41.532Z,1006.32
2022-11-26T04:32:41.463Z,1006.29
2022-11-26T04:33:41.432Z,1006.28
2022-11-26T04:34:41.484Z,1006.25
2022-11-26T04:35:41.383Z,1006.27
2022-11-26T04:36:41.362Z,1006.34
2022-11-26T04:37:41.333Z,1006.27
2022-11-26T04:38:41.311Z,1006.27
2022-11-26T04:39:41.290Z,1006.28
2022-11-26T04:40:41.257Z,1006.24
2022-11-26T04:41:41.238Z,1006.24
2022-11-26T04:42:41.202Z,1006.27
2022-11-26T04:43:41.176Z,1006.27
2022-11-26T04:44:41.156Z,1006.24
2022-11-26T04:45:41.183Z,1006.23
2022-11-26T04:46:41.105Z,1006.23
2022-11-26T04:47:43.128Z,1006.22
2022-11-26T04:48:41.057Z,1006.24
2022-11-26T04:49:41.020Z,1006.23
2022-11-26T04:50:41.037Z,1006.24
2022-11-26T04:51:40.974Z,1006.22
2022-11-26T04:52:40.964Z,1006.25
2022-11-26T04:53:40.925Z,1006.31
2022-11-26T04:54:41.135Z,1006.31
2022-11-26T04:55:40.873Z,1006.32
2022-11-26T04:56:40.850Z,1006.31
2022-11-26T04:57:40.818Z,1006.33
2022-11-26T04:58:40.798Z,1006.34
2022-11-26T04:59:40.771Z,1006.36
2022-11-26T05:00:40.795Z,1006.36
2022-11-26T05:01:40.789Z,1006.39
2022-11-26T05:02:40.752Z,1006.40
2022-11-26T05:03:40.669Z,1006.38
2022-11-26T05:04:40.952Z,1006.38
2022-11-26T05:05:40.611Z,1006.42
2022-11-26T05:06:40.612Z,1006.42
2022-11-26T05:07:40.577Z,1006.44
2022-11-26T05:08:40.552Z,1006.52
2022-11-26T05:09:40.533Z,1006.50
2022-11-26T05:10:40.502Z,1006.55
2022-11-26T05:11:40.459Z,1006.58
2022-11-26T05:12:40.452Z,1006.57
2022-11-26T05:13:40.413Z,1006.60
2022-11-26T05:14:40.662Z,1006.61
2022-11-26T05:15:40.367Z,1006.64
2022-11-26T05:16:40.351Z,1006.65
2022-11-26T05:17:40.334Z,1006.63
2022-11-26T05:18:40.283Z,1006.66
2022-11-26T05:19:40.256Z,1006.66
2022-11-26T05:20:40.229Z,1006.66
2022-11-26T05:21:40.218Z,1006.68
2022-11-26T05:22:40.185Z,1006.65
2022-11-26T05:23:40.149Z,1006.65
2022-11-26T05:24:40.364Z,1006.69
2022-11-26T05:25:40.097Z,1006.69
2022-11-26T05:26:40.079Z,1006.72
2022-11-26T05:27:40.043Z,1006.73
2022-11-26T05:28:40.044Z,1006.73
2022-11-26T05:29:39.997Z,1006.74
2022-11-26T05:30:39.997Z,1006.77
2022-11-26T05:31:40.024Z,1006.74
2022-11-26T05:32:39.919Z,1006.77
2022-11-26T05:33:39.892Z,1006.77
2022-11-26T05:34:40.183Z,1006.83
2022-11-26T05:35:39.837Z,1006.81
2022-11-26T05:36:39.817Z,1006.79
2022-11-26T05:37:39.796Z,1006.75
2022-11-26T05:38:39.764Z,1006.74
2022-11-26T05:39:39.732Z,1006.75
2022-11-26T05:40:39.713Z,1006.81
2022-11-26T05:41:39.705Z,1006.82
2022-11-26T05:42:39.668Z,1006.81
2022-11-26T05:43:39.636Z,1006.79
2022-11-26T05:44:39.944Z,1006.81
2022-11-26T05:45:39.599Z,1006.80
2022-11-26T05:46:39.562Z,1006.82
2022-11-26T05:47:39.545Z,1006.87
2022-11-26T05:48:39.506Z,1006.90
2022-11-26T05:49:39.476Z,1006.94
2022-11-26T05:50:39.458Z,1006.99
2022-11-26T05:51:39.422Z,1006.99
2022-11-26T05:52:39.425Z,1007.00
2022-11-26T05:53:39.373Z,1007.04
2022-11-26T05:54:39.692Z,1007.01
2022-11-26T05:55:39.317Z,1007.01
2022-11-26T05:56:39.301Z,1007.04
2022-11-26T05:57:39.269Z,1007.07
2022-11-26T05:58:39.256Z,1007.05
2022-11-26T05:59:39.231Z,1007.06
2022-11-26T06:00:39.199Z,1007.12
2022-11-26T06:01:39.164Z,1007.15
2022-11-26T06:02:39.293Z,1007.15
2022-11-26T06:03:39.159Z,1007.16
2022-11-26T06:04:39.410Z,1007.18
2022-11-26T06:05:39.073Z,1007.17
2022-11-26T06:06:39.037Z,1007.20
2022-11-26T06:07:43.319Z,1007.18
2022-11-26T06:08:38.988Z,1007.19
2022-11-26T06:09:39.180Z,1007.17
2022-11-26T06:10:38.933Z,1007.12
2022-11-26T06:11:38.917Z,1007.15
2022-11-26T06:12:38.878Z,1007.14
2022-11-26T06:13:38.851Z,1007.14
2022-11-26T06:14:42.995Z,1007.16
2022-11-26T06:15:38.795Z,1007.20
2022-11-26T06:16:38.813Z,1007.22
2022-11-26T06:17:38.747Z,1007.23
2022-11-26T06:18:38.760Z,1007.27
2022-11-26T06:19:38.693Z,1007.29
2022-11-26T06:20:38.673Z,1007.27
2022-11-26T06:21:38.648Z,1007.26
2022-11-26T06:22:38.622Z,1007.26
2022-11-26T06:23:38.586Z,1007.29
2022-11-26T06:24:38.843Z,1007.27
2022-11-26T06:25:38.538Z,1007.33
2022-11-26T06:26:38.514Z,1007.36
2022-11-26T06:27:38.484Z,1007.38
2022-11-26T06:28:38.460Z,1007.39
2022-11-26T06:29:38.439Z,1007.37
2022-11-26T06:30:38.425Z,1007.40
2022-11-26T06:31:38.457Z,1007.39
2022-11-26T06:32:38.371Z,1007.35
2022-11-26T06:33:38.330Z,1007.38
2022-11-26T06:34:38.661Z,1007.38
2022-11-26T06:35:38.303Z,1007.39
2022-11-26T06:36:38.249Z,1007.43
2022-11-26T06:37:38.219Z,1007.41
2022-11-26T06:38:38.197Z,1007.39
2022-11-26T06:39:38.169Z,1007.45
2022-11-26T06:40:38.148Z,1007.47
2022-11-26T06:41:38.116Z,1007.44
2022-11-26T06:42:38.094Z,1007.47
2022-11-26T06:43:38.060Z,1007.52
2022-11-26T06:44:38.401Z,1007.49
2022-11-26T06:45:38.046Z,1007.52
2022-11-26T06:46:37.991Z,1007.56
2022-11-26T06:47:37.961Z,1007.51
2022-11-26T06:48:37.943Z,1007.60
2022-11-26T06:49:37.905Z,1007.58
2022-11-26T06:50:37.884Z,1007.62
2022-11-26T06:51:37.853Z,1007.64
2022-11-26T06:52:37.830Z,1007.66
2022-11-26T06:53:37.799Z,1007.70
2022-11-26T06:54:38.148Z,1007.70
2022-11-26T06:55:37.754Z,1007.74
2022-11-26T06:56:37.727Z,1007.75
2022-11-26T06:57:37.696Z,1007.74
2022-11-26T06:58:37.676Z,1007.79
2022-11-26T06:59:37.642Z,1007.78
2022-11-26T07:00:37.623Z,1007.81
2022-11-26T07:01:37.662Z,1007.86
2022-11-26T07:02:37.665Z,1007.85
2022-11-26T07:03:37.537Z,1007.92
2022-11-26T07:04:37.884Z,1007.90
2022-11-26T07:05:37.502Z,1007.96
2022-11-26T07:06:37.458Z,1007.97
2022-11-26T07:07:37.478Z,1007.99
2022-11-26T07:08:37.406Z,1007.98
2022-11-26T07:09:37.382Z,1007.99
2022-11-26T07:10:37.356Z,1008.02
2022-11-26T07:11:37.356Z,1008.00
2022-11-26T07:12:37.305Z,1008.04
2022-11-26T07:13:37.274Z,1008.05
2022-11-26T07:14:37.754Z,1008.05
2022-11-26T07:15:37.219Z,1008.08
2022-11-26T07:16:37.250Z,1008.10
2022-11-26T07:17:37.173Z,1008.13
2022-11-26T07:18:37.144Z,1008.12
2022-11-26T07:19:37.154Z,1008.16
2022-11-26T07:20:37.093Z,1008.18
2022-11-26T07:21:37.093Z,1008.16
2022-11-26T07:22:37.040Z,1008.16
2022-11-26T07:23:37.007Z,1008.22
2022-11-26T07:24:37.255Z,1008.22
2022-11-26T07:25:36.974Z,1008.22
2022-11-26T07:26:36.952Z,1008.23
2022-11-26T07:27:36.908Z,1008.23
2022-11-26T07:28:36.883Z,1008.26
2022-11-26T07:29:36.851Z,1008.24
2022-11-26T07:30:36.831Z,1008.24
2022-11-26T07:31:36.851Z,1008.23
2022-11-26T07:32:36.798Z,1008.25
2022-11-26T07:33:36.743Z,1008.26
2022-11-26T07:34:37.173Z,1008.22
2022-11-26T07:35:36.717Z,1008.22
2022-11-26T07:36:36.671Z,1008.24
2022-11-26T07:37:36.643Z,1008.23
2022-11-26T07:38:36.620Z,1008.27
2022-11-26T07:39:36.588Z,1008.27
2022-11-26T07:40:36.565Z,1008.31
2022-11-26T07:41:36.535Z,1008.35
2022-11-26T07:42:36.512Z,1008.32
2022-11-26T07:43:36.480Z,1008.32
2022-11-26T07:44:36.807Z,1008.39
2022-11-26T07:45:36.432Z,1008.40
2022-11-26T07:46:36.460Z,1008.44
2022-11-26T07:47:36.386Z,1008.47
2022-11-26T07:48:36.370Z,1008.45
2022-11-26T07:49:36.334Z,1008.47
2022-11-26T07:50:36.311Z,1008.51
2022-11-26T07:51:36.274Z,1008.52
2022-11-26T07:52:36.252Z,1008.51
2022-11-26T07:53:36.224Z,1008.51
2022-11-26T07:54:36.350Z,1008.52
2022-11-26T07:55:36.193Z,1008.52
2022-11-26T07:56:36.146Z,1008.56
2022-11-26T07:57:36.121Z,1008.60
2022-11-26T07:58:36.092Z,1008.57
2022-11-26T07:59:36.070Z,1008.59
2022-11-26T08:00:36.043Z,1008.59
2022-11-26T08:01:36.072Z,1008.61
2022-11-26T08:02:36.040Z,1008.60
2022-11-26T08:03:35.974Z,1008.61
2022-11-26T08:04:36.125Z,1008.66
2022-11-26T08:05:35.916Z,1008.63
2022-11-26T08:06:35.884Z,1008.65
2022-11-26T08:07:35.919Z,1008.68
2022-11-26T08:08:35.831Z,1008.69
2022-11-26T08:09:35.804Z,1008.65
2022-11-26T08:10:35.788Z,1008.66
2022-11-26T08:11:35.761Z,1008.63
2022-11-26T08:12:35.726Z,1008.63
2022-11-26T08:13:35.708Z,1008.63
2022-11-26T08:14:35.931Z,1008.70
2022-11-26T08:15:35.649Z,1008.67
2022-11-26T08:16:35.735Z,1008.70
2022-11-26T08:17:35.600Z,1008.67
2022-11-26T08:18:35.593Z,1008.70
2022-11-26T08:19:35.545Z,1008.66
2022-11-26T08:20:35.520Z,1008.63
2022-11-26T08:21:35.501Z,1008.64
2022-11-26T08:22:35.487Z,1008.64
2022-11-26T08:23:35.448Z,1008.60
2022-11-26T08:24:35.449Z,1008.61
2022-11-26T08:25:35.894Z,1008.63
2022-11-26T08:26:42.446Z,1008.61
2022-11-26T08:27:35.349Z,1008.62
2022-11-26T08:28:35.317Z,1008.66
2022-11-26T08:29:35.293Z,1008.67
2022-11-26T08:30:35.263Z,1008.67
2022-11-26T08:31:35.338Z,1008.68
2022-11-26T08:32:35.215Z,1008.72
2022-11-26T08:33:35.192Z,1008.75
2022-11-26T08:34:35.231Z,1008.80
2022-11-26T08:36:04.927Z,1008.83
2022-11-26T08:36:35.113Z,1008.85
2022-11-26T08:37:35.095Z,1008.85
2022-11-26T08:38:35.069Z,1008.82
2022-11-26T08:39:35.045Z,1008.82
2022-11-26T08:40:35.007Z,1008.82
2022-11-26T08:41:34.990Z,1008.87
2022-11-26T08:42:34.962Z,1008.82
2022-11-26T08:44:04.527Z,1008.81
2022-11-26T08:44:34.911Z,1008.84
2022-11-26T08:45:34.888Z,1008.87
2022-11-26T08:46:34.980Z,1008.82
2022-11-26T08:47:34.837Z,1008.88
2022-11-26T08:48:34.810Z,1008.87
2022-11-26T08:49:34.795Z,1008.83
2022-11-26T08:50:34.775Z,1008.89
2022-11-26T08:51:34.795Z,1008.89
2022-11-26T08:52:34.717Z,1008.85
2022-11-26T08:53:34.692Z,1008.85
2022-11-26T08:54:34.664Z,1008.89
2022-11-26T08:55:58.679Z,1008.83
2022-11-26T08:56:34.614Z,1008.82
2022-11-26T08:57:34.591Z,1008.85
2022-11-26T08:58:34.557Z,1008.83
2022-11-26T08:59:34.543Z,1008.87
2022-11-26T09:00:34.510Z,1008.87
2022-11-26T09:01:34.615Z,1008.91
2022-11-26T09:02:34.503Z,1008.89
2022-11-26T09:03:34.442Z,1008.91
2022-11-26T09:04:34.439Z,1008.93
2022-11-26T09:05:34.392Z,1008.94
2022-11-26T09:06:34.376Z,1008.92
2022-11-26T09:07:34.431Z,1008.92
2022-11-26T09:08:34.309Z,1008.97
2022-11-26T09:09:34.318Z,1008.93
2022-11-26T09:10:34.260Z,1008.97
2022-11-26T09:11:34.239Z,1008.95
2022-11-26T09:12:34.220Z,1008.95
2022-11-26T09:13:34.195Z,1008.96
2022-11-26T09:14:34.197Z,1008.96
2022-11-26T09:15:34.145Z,1008.95
2022-11-26T09:16:34.182Z,1008.98
2022-11-26T09:17:34.091Z,1008.97
2022-11-26T09:18:34.062Z,1008.93
2022-11-26T09:19:34.050Z,1008.91
2022-11-26T09:20:34.042Z,1008.96
2022-11-26T09:21:33.993Z,1008.96
2022-11-26T09:22:33.968Z,1009.00
2022-11-26T09:23:33.944Z,1008.99
2022-11-26T09:24:33.941Z,1009.03
2022-11-26T09:25:33.896Z,1009.00
2022-11-26T09:26:33.891Z,1008.99
2022-11-26T09:27:33.846Z,1008.99
2022-11-26T09:28:33.821Z,1009.01
2022-11-26T09:29:33.799Z,1009.06
2022-11-26T09:30:33.771Z,1009.06
2022-11-26T09:31:33.815Z,1009.11
2022-11-26T09:32:34.386Z,1009.16
2022-11-26T09:33:33.703Z,1009.15
2022-11-26T09:34:33.671Z,1009.16
2022-11-26T09:35:33.652Z,1009.17
2022-11-26T09:36:33.625Z,1009.20
2022-11-26T09:37:33.606Z,1009.14
2022-11-26T09:38:33.604Z,1009.20
2022-11-26T09:39:33.565Z,1009.20
2022-11-26T09:40:33.527Z,1009.24
2022-11-26T09:41:33.509Z,1009.20
2022-11-26T09:42:33.478Z,1009.23
2022-11-26T09:43:33.459Z,1009.25
2022-11-26T09:44:33.433Z,1009.23
2022-11-26T09:45:33.465Z,1009.26
2022-11-26T09:46:40.981Z,1009.26
2022-11-26T09:47:33.366Z,1009.27
2022-11-26T09:48:33.335Z,1009.24
2022-11-26T09:49:33.312Z,1009.29
2022-11-26T09:50:33.294Z,1009.29
2022-11-26T09:51:33.314Z,1009.29
2022-11-26T09:52:33.241Z,1009.30
2022-11-26T09:53:33.228Z,1009.35
2022-11-26T09:54:33.192Z,1009.30
2022-11-26T09:55:33.174Z,1009.36
2022-11-26T09:56:33.146Z,1009.33
2022-11-26T09:57:33.126Z,1009.31
2022-11-26T09:58:33.105Z,1009.30
2022-11-26T09:59:33.081Z,1009.31
2022-11-26T10:00:33.051Z,1009.31
2022-11-26T10:01:33.094Z,1009.33
2022-11-26T10:02:33.066Z,1009.35
2022-11-26T10:03:32.987Z,1009.36
2022-11-26T10:04:32.959Z,1009.36
2022-11-26T10:05:32.943Z,1009.33
2022-11-26T10:06:32.919Z,1009.30
2022-11-26T10:07:32.932Z,1009.31
2022-11-26T10:08:32.869Z,1009.29
2022-11-26T10:09:32.894Z,1009.25
2022-11-26T10:10:32.828Z,1009.21
2022-11-26T10:11:32.812Z,1009.17
2022-11-26T10:12:34.082Z,1009.23
2022-11-26T10:13:32.763Z,1009.19
2022-11-26T10:14:32.736Z,1009.21
2022-11-26T10:15:32.717Z,1009.23
2022-11-26T10:16:32.729Z,1009.21
2022-11-26T10:17:32.671Z,1009.26
2022-11-26T10:18:32.644Z,1009.27
2022-11-26T10:19:32.631Z,1009.27
2022-11-26T10:20:32.605Z,1009.31
2022-11-26T10:21:57.775Z,1009.29
2022-11-26T10:22:32.566Z,1009.34
2022-11-26T10:23:32.544Z,1009.30
2022-11-26T10:24:32.517Z,1009.35
2022-11-26T10:25:32.496Z,1009.31
2022-11-26T10:26:32.479Z,1009.33
2022-11-26T10:27:32.464Z,1009.30
2022-11-26T10:28:32.435Z,1009.30
2022-11-26T10:29:32.416Z,1009.33
2022-11-26T10:30:32.388Z,1009.34
2022-11-26T10:31:32.409Z,1009.34
2022-11-26T10:32:32.357Z,1009.30
2022-11-26T10:33:32.330Z,1009.33
2022-11-26T10:34:37.426Z,1009.29
2022-11-26T10:35:32.292Z,1009.32
2022-11-26T10:36:32.260Z,1009.33
2022-11-26T10:37:32.248Z,1009.32
2022-11-26T10:38:32.221Z,1009.31
2022-11-26T10:39:32.210Z,1009.28
2022-11-26T10:40:32.195Z,1009.28
2022-11-26T10:41:32.171Z,1009.26
2022-11-26T10:42:32.146Z,1009.24
2022-11-26T10:43:32.125Z,1009.26
2022-11-26T10:44:32.102Z,1009.25
2022-11-26T10:45:32.085Z,1009.24
2022-11-26T10:46:32.114Z,1009.25
2022-11-26T10:47:32.041Z,1009.24
2022-11-26T10:48:32.030Z,1009.21
2022-11-26T10:49:32.016Z,1009.24
2022-11-26T10:50:47.048Z,1009.27
2022-11-26T10:51:31.968Z,1009.24
2022-11-26T10:52:31.939Z,1009.23
2022-11-26T10:53:31.925Z,1009.23
2022-11-26T10:54:31.901Z,1009.22
2022-11-26T10:55:31.892Z,1009.21
2022-11-26T10:56:31.864Z,1009.20
2022-11-26T10:57:31.848Z,1009.23
2022-11-26T10:58:31.822Z,1009.20
2022-11-26T10:59:31.812Z,1009.19
2022-11-26T11:00:31.828Z,1009.19
2022-11-26T11:01:31.837Z,1009.14
2022-11-26T11:02:31.851Z,1009.14
2022-11-26T11:04:06.670Z,1009.13
2022-11-26T11:04:31.706Z,1009.13
2022-11-26T11:05:31.691Z,1009.16
2022-11-26T11:06:31.674Z,1009.13
2022-11-26T11:07:31.773Z,1009.17
2022-11-26T11:08:31.633Z,1009.16
2022-11-26T11:09:31.616Z,1009.17
2022-11-26T11:10:31.588Z,1009.21
2022-11-26T11:11:31.611Z,1009.19
2022-11-26T11:12:31.550Z,1009.21
2022-11-26T11:13:31.540Z,1009.18
2022-11-26T11:14:31.513Z,1009.18
2022-11-26T11:15:31.499Z,1009.15
2022-11-26T11:16:31.526Z,1009.17
2022-11-26T11:17:31.465Z,1009.17
2022-11-26T11:18:31.436Z,1009.12
2022-11-26T11:19:31.421Z,1009.17
2022-11-26T11:20:31.409Z,1009.14
2022-11-26T11:21:31.383Z,1009.12
2022-11-26T11:22:31.383Z,1009.13
2022-11-26T11:24:00.280Z,1009.07
2022-11-26T11:24:31.313Z,1009.07
2022-11-26T11:25:31.318Z,1009.05
2022-11-26T11:26:31.273Z,1009.06
2022-11-26T11:27:31.253Z,1009.07
2022-11-26T11:28:31.229Z,1009.05
2022-11-26T11:29:31.209Z,1009.04
2022-11-26T11:30:31.183Z,1009.03
2022-11-26T11:31:31.238Z,1008.97
2022-11-26T11:32:31.142Z,1009.00
2022-11-26T11:33:31.129Z,1009.00
2022-11-26T11:34:31.102Z,1008.99
2022-11-26T11:35:31.080Z,1008.99
2022-11-26T11:36:31.059Z,1008.98
2022-11-26T11:37:31.038Z,1008.97
2022-11-26T11:38:31.013Z,1008.95
2022-11-26T11:39:30.995Z,1008.96
2022-11-26T11:40:30.986Z,1008.97
2022-11-26T11:41:30.959Z,1008.93
2022-11-26T11:42:30.924Z,1008.96
2022-11-26T11:43:30.955Z,1008.96
2022-11-26T11:44:30.883Z,1008.91
2022-11-26T11:45:30.891Z,1008.97
2022-11-26T11:46:30.836Z,1008.93
2022-11-26T11:47:30.824Z,1008.94
2022-11-26T11:48:30.793Z,1008.98
2022-11-26T11:49:30.774Z,1008.96
2022-11-26T11:50:30.763Z,1008.99
2022-11-26T11:51:30.726Z,1009.02
2022-11-26T11:52:30.702Z,1009.02
2022-11-26T11:53:30.688Z,1009.03
2022-11-26T11:54:30.660Z,1009.04
2022-11-26T11:55:30.641Z,1009.01
2022-11-26T11:56:30.615Z,1009.01
2022-11-26T11:57:30.594Z,1008.99
2022-11-26T11:58:30.570Z,1008.99
2022-11-26T11:59:30.559Z,1009.02
2022-11-26T12:00:30.526Z,1009.02
2022-11-26T12:01:30.515Z,1009.01
2022-11-26T12:02:30.516Z,1009.00
2022-11-26T12:03:30.467Z,1008.98
2022-11-26T12:04:30.475Z,1008.97
2022-11-26T12:05:30.420Z,1008.98